Time;durP1;ratioP1;P1;durP2;ratioP2;P2;SDS_P1;SDS_P2;PMS_P1;PMS_P2;Temp;Humidity;BMP_temperature;BMP_pressure;BME280_temperature;BME280_humidity;BME280_pressure;Samples;Min_cycle;Max_cycle;Signal;HPM_P1;HPM_P2
2023/02/18 00:04:52;;;;;;;7.22;5.55;;;;;;;8.46;100.00;98866.97;15263087;19;20512;-55
2023/02/18 00:10:18;;;;;;;8.93;6.30;;;;;;;8.44;100.00;98882.38;15267941;19;20417;-53
2023/02/18 00:15:52;;;;;;;8.85;6.32;;;;;;;8.41;100.00;98888.03;15265398;19;20025;-54
2023/02/18 00:21:18;;;;;;;6.57;5.93;;;;;;;8.41;100.00;98888.03;15263969;19;20053;-54
2023/02/18 00:26:43;;;;;;;7.32;6.07;;;;;;;8.39;100.00;98890.00;15269064;19;20010;-53
2023/02/18 00:32:11;;;;;;;7.68;6.43;;;;;;;8.40;100.00;98899.75;15260502;19;20010;-53
2023/02/18 00:37:35;;;;;;;8.35;6.68;;;;;;;8.37;100.00;98908.91;15274099;19;20416;-55
2023/02/18 00:43:00;;;;;;;8.63;7.60;;;;;;;8.35;100.00;98904.69;15273263;19;20491;-55
2023/02/18 00:48:27;;;;;;;8.80;7.18;;;;;;;8.35;100.00;98910.03;15274176;19;20016;-54
2023/02/18 00:53:53;;;;;;;8.50;7.20;;;;;;;8.30;100.00;98927.38;15271110;19;20010;-52
2023/02/18 00:59:18;;;;;;;10.00;7.88;;;;;;;8.29;100.00;98922.16;15278838;19;20022;-54
2023/02/18 01:04:47;;;;;;;9.40;8.30;;;;;;;8.26;100.00;98923.28;15274071;19;20049;-55
2023/02/18 01:10:12;;;;;;;9.43;8.05;;;;;;;8.21;100.00;98906.72;15278793;19;20022;-55
2023/02/18 01:15:37;;;;;;;8.80;7.38;;;;;;;8.17;100.00;98924.09;15281081;19;20019;-55
2023/02/18 01:21:07;;;;;;;5.47;4.10;;;;;;;8.01;100.00;98903.97;15270821;19;20022;-55
2023/02/18 01:26:32;;;;;;;5.38;4.30;;;;;;;7.95;100.00;98871.44;15278300;19;20022;-52
2023/02/18 01:31:58;;;;;;;5.53;4.20;;;;;;;7.83;100.00;98876.03;15273548;19;20441;-56
2023/02/18 01:37:27;;;;;;;5.97;3.33;;;;;;;7.67;100.00;98861.28;15279210;19;20045;-56
2023/02/18 01:42:53;;;;;;;5.63;3.67;;;;;;;7.51;100.00;98851.03;15276443;19;20021;-55
2023/02/18 01:48:21;;;;;;;6.18;3.67;;;;;;;7.38;100.00;98845.84;15276852;19;20019;-53
2023/02/18 01:53:55;;;;;;;7.22;4.40;;;;;;;7.32;100.00;98859.78;15265327;19;20032;-55
2023/02/18 01:59:23;;;;;;;7.03;3.90;;;;;;;7.22;100.00;98864.22;15277756;19;20011;-53
2023/02/18 02:04:49;;;;;;;9.65;4.25;;;;;;;7.17;100.00;98861.06;15270728;19;20086;-50
2023/02/18 02:10:18;;;;;;;8.98;4.60;;;;;;;7.06;100.00;98878.88;15276229;19;20025;-60
2023/02/18 02:15:50;;;;;;;11.98;4.90;;;;;;;7.04;100.00;98899.59;15276478;19;20022;-52
2023/02/18 02:21:50;;;;;;;9.73;5.70;;;;;;;7.02;100.00;98898.03;15275555;19;20027;-54
2023/02/18 02:27:27;;;;;;;8.82;5.43;;;;;;;6.98;100.00;98900.09;15300725;19;20082;-58
2023/02/18 02:33:26;;;;;;;7.55;5.60;;;;;;;6.97;100.00;98905.56;15280414;19;20070;-56
2023/02/18 02:39:03;;;;;;;8.55;5.72;;;;;;;6.99;100.00;98917.00;15261639;19;20018;-57
2023/02/18 02:44:40;;;;;;;7.78;5.70;;;;;;;7.05;100.00;98913.84;15270194;19;20856;-55
2023/02/18 02:50:12;;;;;;;8.43;6.10;;;;;;;7.08;100.00;98919.78;15242011;19;20142;-57
2023/02/18 02:55:39;;;;;;;8.50;6.63;;;;;;;7.12;100.00;98903.44;15271060;19;20021;-58
2023/02/18 03:01:20;;;;;;;9.02;7.18;;;;;;;7.20;100.00;98901.84;15265510;19;20057;-55
2023/02/18 03:07:09;;;;;;;7.45;6.10;;;;;;;7.28;100.00;98909.25;15269623;19;20014;-55
2023/02/18 03:12:44;;;;;;;8.93;5.65;;;;;;;7.39;100.00;98917.22;15268238;19;20026;-53
2023/02/18 03:18:16;;;;;;;5.40;4.30;;;;;;;7.48;100.00;98888.81;15271892;19;20026;-57
2023/02/18 03:23:48;;;;;;;5.10;4.50;;;;;;;7.50;100.00;98892.22;15265170;19;20026;-55
2023/02/18 03:29:18;;;;;;;5.40;4.47;;;;;;;7.55;100.00;98878.41;15270276;19;20097;-57
2023/02/18 03:34:47;;;;;;;8.57;5.30;;;;;;;7.54;100.00;98877.53;15267157;19;20019;-57
2023/02/18 03:40:13;;;;;;;6.45;4.78;;;;;;;7.57;100.00;98860.38;15270900;19;20090;-55
2023/02/18 03:45:41;;;;;;;7.20;5.10;;;;;;;7.55;100.00;98851.59;15264318;19;20837;-55
2023/02/18 03:51:06;;;;;;;7.80;5.50;;;;;;;7.52;100.00;98865.25;15264881;19;20018;-58
2023/02/18 03:56:31;;;;;;;6.00;5.40;;;;;;;7.51;100.00;98875.16;15271027;19;20014;-56
2023/02/18 04:02:01;;;;;;;8.15;5.70;;;;;;;7.51;100.00;98866.25;15262314;19;20015;-57
2023/02/18 04:07:33;;;;;;;9.90;7.03;;;;;;;7.48;100.00;98882.56;15264193;19;20039;-54
2023/02/18 04:12:57;;;;;;;9.73;7.50;;;;;;;7.46;100.00;98887.25;15265455;19;20038;-55
2023/02/18 04:18:25;;;;;;;12.38;7.97;;;;;;;7.45;100.00;98883.69;15274067;19;20299;-53
2023/02/18 04:23:49;;;;;;;12.23;8.85;;;;;;;7.44;100.00;98881.16;15267068;19;20023;-56
2023/02/18 04:29:14;;;;;;;13.88;9.20;;;;;;;7.40;100.00;98892.13;15282499;19;20022;-56
2023/02/18 04:34:41;;;;;;;14.18;10.30;;;;;;;7.40;100.00;98897.50;15270521;19;20061;-54
2023/02/18 04:40:06;;;;;;;16.02;10.70;;;;;;;7.40;100.00;98883.25;15278951;19;20014;-55
2023/02/18 04:45:31;;;;;;;15.93;10.68;;;;;;;7.38;100.00;98872.63;15275248;19;20027;-56
2023/02/18 04:50:59;;;;;;;17.60;11.15;;;;;;;7.36;100.00;98885.31;15279475;19;20042;-52
2023/02/18 04:56:23;;;;;;;19.88;12.27;;;;;;;7.35;100.00;98875.56;15279788;19;20484;-54
2023/02/18 05:01:48;;;;;;;19.88;13.10;;;;;;;7.35;100.00;98872.88;15276331;19;20049;-55
2023/02/18 05:07:22;;;;;;;20.38;12.55;;;;;;;7.36;100.00;98863.88;15270589;19;20413;-55
2023/02/18 05:12:46;;;;;;;23.20;12.73;;;;;;;7.37;100.00;98841.44;15274199;19;20026;-51
2023/02/18 05:18:11;;;;;;;20.52;12.25;;;;;;;7.37;100.00;98844.13;15280633;19;20022;-53
2023/02/18 05:23:38;;;;;;;19.38;12.63;;;;;;;7.38;100.00;98832.44;15265720;19;20022;-55
2023/02/18 05:29:03;;;;;;;21.10;12.15;;;;;;;7.39;100.00;98835.97;15277190;19;20042;-50
2023/02/18 05:34:27;;;;;;;19.52;12.32;;;;;;;7.39;100.00;98818.06;15272968;19;20022;-54
2023/02/18 05:39:55;;;;;;;20.25;12.80;;;;;;;7.42;100.00;98800.00;15271995;19;20082;-51
2023/02/18 05:45:20;;;;;;;16.02;11.43;;;;;;;7.36;100.00;98801.38;15270457;19;20027;-53
2023/02/18 05:50:44;;;;;;;18.27;11.30;;;;;;;7.37;100.00;98795.03;15266658;19;20836;-54
2023/02/18 05:56:11;;;;;;;10.15;7.65;;;;;;;7.40;100.00;98778.72;14764888;19;10000190;-55
2023/02/18 06:01:36;;;;;;;4.63;3.65;;;;;;;7.58;100.00;98760.19;15270806;19;20022;-52
2023/02/18 06:07:00;;;;;;;3.10;2.50;;;;;;;7.72;100.00;98743.69;15266949;19;20042;-54
2023/02/18 06:12:28;;;;;;;2.28;1.90;;;;;;;7.87;100.00;98708.47;15263304;19;20448;-55
2023/02/18 06:17:52;;;;;;;2.35;1.60;;;;;;;7.99;100.00;98664.44;15270634;19;20043;-53
2023/02/18 06:23:17;;;;;;;2.10;1.90;;;;;;;8.07;100.00;98636.91;15270772;19;20774;-53
2023/02/18 06:28:44;;;;;;;1.55;1.33;;;;;;;8.17;100.00;98605.56;15273339;19;21860;-54
2023/02/18 06:34:09;;;;;;;1.45;1.30;;;;;;;8.24;100.00;98570.94;15269005;19;20034;-53
2023/02/18 06:39:33;;;;;;;2.33;1.10;;;;;;;8.31;100.00;98550.59;15271155;19;20037;-54
2023/02/18 06:45:01;;;;;;;2.05;0.93;;;;;;;8.39;100.00;98527.56;15261203;19;20034;-53
2023/02/18 06:50:25;;;;;;;1.50;1.00;;;;;;;8.47;100.00;98516.94;15262586;19;20021;-53
2023/02/18 06:55:51;;;;;;;1.60;0.90;;;;;;;8.54;100.00;98525.28;15266529;19;20033;-53
2023/02/18 07:01:25;;;;;;;0.70;0.70;;;;;;;8.68;100.00;98526.66;15267526;19;20019;-54
2023/02/18 07:06:56;;;;;;;0.60;0.60;;;;;;;8.75;100.00;98514.34;15266181;19;20349;-52
2023/02/18 07:12:21;;;;;;;0.50;0.50;;;;;;;8.84;100.00;98489.28;15269577;19;20046;-55
2023/02/18 07:17:48;;;;;;;0.93;0.60;;;;;;;8.85;100.00;98490.97;15269564;19;20018;-55
2023/02/18 07:23:12;;;;;;;0.60;0.60;;;;;;;8.97;100.00;98475.47;15266968;19;20032;-53
2023/02/18 07:28:37;;;;;;;0.55;0.40;;;;;;;9.00;100.00;98482.38;15262807;19;20890;-53
2023/02/18 07:34:04;;;;;;;2.38;0.52;;;;;;;9.06;100.00;98445.00;15266891;19;20094;-55
2023/02/18 07:39:29;;;;;;;0.52;0.38;;;;;;;9.12;100.00;98438.19;15266583;19;20372;-50
2023/02/18 07:44:53;;;;;;;0.95;0.30;;;;;;;9.25;100.00;98433.28;15267743;19;20082;-53
2023/02/18 07:50:21;;;;;;;0.50;0.50;;;;;;;9.29;100.00;98433.81;15281716;19;20098;-49
2023/02/18 07:55:51;;;;;;;0.25;0.25;;;;;;;9.35;100.00;98427.84;15285871;19;20697;-51
2023/02/18 08:01:18;;;;;;;0.47;0.27;;;;;;;9.40;100.00;98424.69;15281492;19;20019;-52
2023/02/18 08:06:55;;;;;;;0.80;0.30;;;;;;;9.48;100.00;98419.38;15279293;19;20547;-52
2023/02/18 08:12:20;;;;;;;0.22;0.20;;;;;;;9.55;100.00;98428.53;15276395;19;20021;-53
2023/02/18 08:17:44;;;;;;;0.30;0.20;;;;;;;9.64;100.00;98410.59;15281965;19;20643;-50
2023/02/18 08:23:12;;;;;;;0.22;0.20;;;;;;;9.72;100.00;98412.53;15266847;19;20058;-51
2023/02/18 08:28:37;;;;;;;0.43;0.17;;;;;;;9.69;100.00;98407.47;15270996;19;20018;-50
2023/02/18 08:34:03;;;;;;;0.28;0.10;;;;;;;9.69;100.00;98405.63;15270770;19;20030;-56
2023/02/18 08:39:30;;;;;;;0.30;0.20;;;;;;;9.71;100.00;98389.31;15278942;19;20025;-51
2023/02/18 08:44:56;;;;;;;1.85;0.20;;;;;;;9.77;100.00;98398.59;15281665;19;20030;-51
2023/02/18 08:50:24;;;;;;;0.25;0.10;;;;;;;9.82;100.00;98401.66;15279747;19;20021;-53
2023/02/18 08:55:52;;;;;;;0.28;0.10;;;;;;;9.87;100.00;98394.81;15282342;19;20543;-55
2023/02/18 09:01:20;;;;;;;0.28;0.20;;;;;;;9.96;100.00;98382.28;15272057;19;20015;-53
2023/02/18 09:06:51;;;;;;;0.10;0.10;;;;;;;10.08;100.00;98339.75;15274840;19;20033;-51
2023/02/18 09:12:19;;;;;;;0.00;0.00;;;;;;;10.18;100.00;98324.34;15277042;19;20018;-51
2023/02/18 09:17:44;;;;;;;0.52;0.10;;;;;;;10.32;100.00;98327.44;15280196;19;20025;-52
2023/02/18 09:23:09;;;;;;;0.10;0.10;;;;;;;10.37;100.00;98327.78;15276267;19;20022;-53
2023/02/18 09:28:37;;;;;;;0.47;0.10;;;;;;;10.45;100.00;98325.16;15279029;19;20022;-51
2023/02/18 09:34:04;;;;;;;0.00;0.00;;;;;;;10.53;100.00;98328.88;15264915;19;20014;-53
2023/02/18 09:39:30;;;;;;;0.00;0.00;;;;;;;10.59;100.00;98320.97;15277849;19;20018;-49
2023/02/18 09:45:01;;;;;;;0.10;0.10;;;;;;;10.59;100.00;98325.53;15275252;19;20022;-54
2023/02/18 09:50:30;;;;;;;0.00;0.00;;;;;;;10.71;100.00;98308.06;15269007;19;20015;-51
2023/02/18 09:55:57;;;;;;;0.75;0.10;;;;;;;10.74;100.00;98318.53;15274737;19;20456;-52
2023/02/18 10:01:32;;;;;;;0.00;0.00;;;;;;;10.85;100.00;98289.56;15270368;19;20032;-55
2023/02/18 10:06:58;;;;;;;0.10;0.10;;;;;;;10.94;100.00;98281.31;15240343;19;20648;-49
2023/02/18 10:12:25;;;;;;;0.10;0.10;;;;;;;11.05;100.00;98285.53;15273328;19;20019;-51
2023/02/18 10:17:55;;;;;;;0.03;0.03;;;;;;;11.04;100.00;98273.06;15277663;19;20021;-54
2023/02/18 10:23:23;;;;;;;0.15;0.10;;;;;;;11.14;100.00;98282.81;15276216;19;20014;-53
2023/02/18 10:28:48;;;;;;;0.10;0.10;;;;;;;11.17;100.00;98290.59;15274663;19;20017;-50
2023/02/18 10:34:27;;;;;;;0.22;0.10;;;;;;;11.24;100.00;98286.19;15274155;19;20023;-54
2023/02/18 10:40:09;;;;;;;0.00;0.00;;;;;;;11.20;100.00;98250.63;15270449;19;20404;-53
2023/02/18 10:45:46;;;;;;;0.20;0.10;;;;;;;11.19;100.00;98267.00;15272889;19;20018;-51
2023/02/18 10:51:19;;;;;;;0.05;0.05;;;;;;;11.13;100.00;98232.59;15271934;19;20472;-51
2023/02/18 10:56:48;;;;;;;0.10;0.10;;;;;;;11.08;100.00;98250.16;15276218;19;20459;-50
2023/02/18 11:02:19;;;;;;;0.47;0.05;;;;;;;11.01;100.00;98284.16;15269562;19;20634;-49
2023/02/18 11:07:58;;;;;;;0.28;0.10;;;;;;;10.93;100.00;98243.75;15267717;19;20026;-52
2023/02/18 11:13:28;;;;;;;0.10;0.10;;;;;;;10.84;100.00;98242.88;15270253;19;20362;-52
2023/02/18 11:18:53;;;;;;;0.10;0.10;;;;;;;10.73;100.00;98260.25;15276807;19;20808;-52
2023/02/18 11:24:22;;;;;;;0.10;0.10;;;;;;;10.60;100.00;98254.50;15269523;19;20021;-55
2023/02/18 11:29:47;;;;;;;0.17;0.10;;;;;;;10.57;100.00;98231.44;15271350;19;20015;-52
2023/02/18 11:35:20;;;;;;;0.22;0.10;;;;;;;10.52;100.00;98222.16;15270314;19;20014;-52
2023/02/18 11:40:48;;;;;;;0.22;0.15;;;;;;;10.56;100.00;98215.41;15269263;19;20026;-49
2023/02/18 11:46:15;;;;;;;0.43;0.10;;;;;;;10.61;100.00;98200.44;15265984;19;20081;-49
2023/02/18 11:51:43;;;;;;;0.10;0.10;;;;;;;10.66;100.00;98188.31;15268994;19;20019;-51
2023/02/18 11:57:15;;;;;;;0.08;0.08;;;;;;;10.81;100.00;98185.78;15271268;19;20018;-54
2023/02/18 12:02:44;;;;;;;0.08;0.03;;;;;;;10.97;100.00;98147.22;15268401;19;20341;-53
2023/02/18 12:08:15;;;;;;;0.30;0.15;;;;;;;10.87;100.00;98193.22;15262284;19;20014;-51
2023/02/18 12:13:46;;;;;;;0.00;0.00;;;;;;;10.73;100.00;98171.31;15267617;19;20019;-53
2023/02/18 12:19:29;;;;;;;0.52;0.05;;;;;;;10.65;100.00;98160.53;15266348;19;20018;-50
2023/02/18 12:25:11;;;;;;;0.10;0.10;;;;;;;10.68;100.00;98178.22;15270774;19;20416;-52
2023/02/18 12:31:00;;;;;;;0.20;0.10;;;;;;;10.58;100.00;98170.31;15263889;19;20019;-52
2023/02/18 12:36:35;;;;;;;0.10;0.10;;;;;;;10.50;100.00;98175.69;15276354;19;20019;-53
2023/02/18 12:42:20;;;;;;;0.63;0.20;;;;;;;10.44;100.00;98167.25;15275479;19;20022;-52
2023/02/18 12:48:13;;;;;;;0.13;0.13;;;;;;;10.44;100.00;98148.41;15268362;19;20019;-48
2023/02/18 12:53:59;;;;;;;1.02;0.40;;;;;;;10.44;100.00;98175.34;15275050;19;20018;-52
2023/02/18 12:59:39;;;;;;;0.32;0.32;;;;;;;10.42;100.00;98180.03;15279390;19;20025;-52
2023/02/18 13:05:14;;;;;;;0.15;0.15;;;;;;;10.38;100.00;98212.84;15280921;19;20011;-52
2023/02/18 13:10:59;;;;;;;0.00;0.00;;;;;;;10.38;100.00;98181.41;15275818;19;20022;-51
2023/02/18 13:16:26;;;;;;;0.35;0.13;;;;;;;10.30;100.00;98184.03;15281210;19;20472;-52
2023/02/18 13:21:56;;;;;;;0.30;0.10;;;;;;;10.22;100.00;98254.03;15281120;19;20021;-51
2023/02/18 13:27:29;;;;;;;0.17;0.10;;;;;;;10.17;100.00;98206.06;15277683;19;20014;-52
2023/02/18 13:33:05;;;;;;;0.10;0.10;;;;;;;10.14;100.00;98207.22;15279352;19;20021;-52
2023/02/18 13:38:59;;;;;;;0.13;0.10;;;;;;;10.13;100.00;98220.84;15279599;19;20765;-50
2023/02/18 13:45:10;;;;;;;0.20;0.10;;;;;;;10.11;100.00;98201.34;15271050;19;20527;-50
2023/02/18 13:50:43;;;;;;;0.10;0.10;;;;;;;10.05;100.00;98224.38;15275977;19;20512;-55
2023/02/18 13:56:16;;;;;;;0.40;0.20;;;;;;;10.03;100.00;98242.53;15273963;19;20340;-50
2023/02/18 14:01:47;;;;;;;0.32;0.10;;;;;;;9.99;100.00;98208.84;15272215;19;20037;-51
2023/02/18 14:07:55;;;;;;;0.20;0.10;;;;;;;9.96;100.00;98209.16;15272190;19;20086;-52
2023/02/18 14:13:27;;;;;;;0.35;0.17;;;;;;;10.01;100.00;98201.47;15271236;19;20139;-55
2023/02/18 14:19:08;;;;;;;0.17;0.17;;;;;;;9.97;100.00;98208.16;15270831;19;20029;-53
2023/02/18 14:24:49;;;;;;;0.40;0.20;;;;;;;9.90;100.00;98209.84;15263938;19;20021;-50
2023/02/18 14:30:27;;;;;;;0.15;0.10;;;;;;;9.86;100.00;98207.47;15275184;19;20019;-52
2023/02/18 14:35:58;;;;;;;0.73;0.20;;;;;;;9.81;100.00;98196.34;15273171;19;20090;-49
2023/02/18 14:41:37;;;;;;;0.20;0.13;;;;;;;9.80;100.00;98210.81;15271285;19;20121;-49
2023/02/18 14:47:16;;;;;;;0.22;0.20;;;;;;;9.82;100.00;98192.63;15269508;19;20018;-48
2023/02/18 14:52:51;;;;;;;0.40;0.28;;;;;;;9.80;100.00;98231.47;15270789;19;20022;-52
2023/02/18 14:58:28;;;;;;;0.15;0.10;;;;;;;9.81;100.00;98274.38;15264325;19;20020;-49
2023/02/18 15:03:55;;;;;;;0.38;0.20;;;;;;;9.80;100.00;98216.19;15272801;19;20011;-50
2023/02/18 15:09:24;;;;;;;0.10;0.10;;;;;;;9.83;100.00;98207.78;15269199;19;20049;-52
2023/02/18 15:14:51;;;;;;;0.60;0.25;;;;;;;9.84;100.00;98214.03;15266144;19;20648;-51
2023/02/18 15:20:17;;;;;;;0.70;0.17;;;;;;;9.89;100.00;98216.22;15268340;19;20018;-50
2023/02/18 15:25:44;;;;;;;0.25;0.10;;;;;;;9.83;100.00;98236.53;15269978;19;20041;-52
2023/02/18 15:31:13;;;;;;;0.05;0.05;;;;;;;9.79;100.00;98243.25;15265222;19;20021;-53
2023/02/18 15:36:40;;;;;;;0.10;0.10;;;;;;;9.80;100.00;98240.41;15271597;19;20011;-52
2023/02/18 15:42:10;;;;;;;0.80;0.30;;;;;;;9.78;100.00;98246.94;15269438;19;20025;-50
2023/02/18 15:47:34;;;;;;;0.40;0.20;;;;;;;9.79;100.00;98251.31;15268657;19;20017;-51
2023/02/18 15:53:01;;;;;;;0.10;0.10;;;;;;;9.76;100.00;98249.78;15264119;19;20014;-49
2023/02/18 15:58:32;;;;;;;0.30;0.10;;;;;;;9.76;100.00;98252.47;15268404;19;20023;-51
2023/02/18 16:03:58;;;;;;;0.30;0.20;;;;;;;9.73;100.00;98285.09;15262852;19;20016;-52
2023/02/18 16:09:35;;;;;;;0.20;0.05;;;;;;;9.72;100.00;98278.00;15276417;19;20773;-50
2023/02/18 16:15:02;;;;;;;0.20;0.10;;;;;;;9.74;100.00;98297.53;15290619;19;20788;-48
2023/02/18 16:20:37;;;;;;;0.38;0.20;;;;;;;9.75;100.00;98301.91;15279266;19;20923;-55
2023/02/18 16:26:21;;;;;;;0.40;0.10;;;;;;;9.72;100.00;98291.47;15279325;19;20010;-54
2023/02/18 16:31:49;;;;;;;0.38;0.10;;;;;;;9.68;100.00;98300.88;15282569;19;20482;-49
2023/02/18 16:42:51;;;;;;;0.10;0.10;;;;;;;9.55;100.00;98312.03;15281492;19;20454;-50
2023/02/18 16:48:22;;;;;;;0.20;0.20;;;;;;;9.46;100.00;98300.41;15278704;19;20021;-49
2023/02/18 16:53:46;;;;;;;0.30;0.20;;;;;;;9.48;100.00;98311.81;15277172;19;20014;-52
2023/02/18 16:59:11;;;;;;;0.25;0.20;;;;;;;9.50;100.00;98319.75;15277949;19;20018;-51
2023/02/18 17:04:38;;;;;;;0.13;0.10;;;;;;;9.37;100.00;98331.75;15275636;19;20023;-51
2023/02/18 17:10:03;;;;;;;0.20;0.13;;;;;;;9.20;100.00;98337.97;15273103;19;20011;-49
2023/02/18 17:15:38;;;;;;;0.13;0.10;;;;;;;9.12;100.00;98341.44;15280392;19;20003;-52
2023/02/18 17:21:07;;;;;;;0.10;0.10;;;;;;;9.00;100.00;98361.47;15275282;19;20028;-51
2023/02/18 17:26:34;;;;;;;0.10;0.10;;;;;;;8.96;100.00;98370.84;15278902;19;20050;-48
2023/02/18 17:31:59;;;;;;;0.55;0.20;;;;;;;8.90;100.00;98381.19;15279725;19;20024;-48
2023/02/18 17:37:27;;;;;;;0.45;0.00;;;;;;;8.84;100.00;98403.31;15276139;19;20046;-49
2023/02/18 17:42:52;;;;;;;0.65;0.20;;;;;;;8.75;100.00;98406.91;15276760;19;20011;-52
2023/02/18 17:48:18;;;;;;;0.20;0.20;;;;;;;8.68;100.00;98429.97;15275986;19;20010;-49
2023/02/18 17:53:45;;;;;;;0.10;0.10;;;;;;;8.70;100.00;98433.34;15274664;19;20014;-49
2023/02/18 17:59:10;;;;;;;0.35;0.10;;;;;;;8.58;100.00;98463.09;15277676;19;20074;-53
2023/02/18 18:04:35;;;;;;;0.10;0.10;;;;;;;8.52;100.00;98470.88;15276841;19;20025;-53
2023/02/18 18:10:03;;;;;;;0.38;0.10;;;;;;;8.54;100.00;98448.25;15268709;19;20021;-51
2023/02/18 18:15:33;;;;;;;0.20;0.20;;;;;;;8.59;100.00;98456.72;15276189;19;20019;-54
2023/02/18 18:21:00;;;;;;;0.20;0.10;;;;;;;8.63;100.00;98462.63;15273482;19;20514;-52
2023/02/18 18:26:27;;;;;;;0.20;0.20;;;;;;;8.72;100.00;98436.72;15275891;19;20081;-52
2023/02/18 18:31:52;;;;;;;0.10;0.10;;;;;;;8.72;100.00;98458.22;15270279;19;20026;-53
2023/02/18 18:37:17;;;;;;;0.43;0.20;;;;;;;8.63;100.00;98466.19;15276079;19;20022;-54
2023/02/18 18:42:44;;;;;;;0.13;0.13;;;;;;;8.64;100.00;98465.16;15268820;19;20014;-53
2023/02/18 18:48:09;;;;;;;0.40;0.20;;;;;;;8.60;100.00;98463.78;15270976;19;20444;-52
2023/02/18 18:53:36;;;;;;;0.35;0.20;;;;;;;8.55;100.00;98474.09;15271687;19;20085;-54
2023/02/18 18:59:03;;;;;;;0.10;0.10;;;;;;;8.61;100.00;98472.69;15273841;19;20093;-49
2023/02/18 19:04:28;;;;;;;0.25;0.20;;;;;;;8.72;100.00;98458.22;15271019;19;20014;-54
2023/02/18 19:09:55;;;;;;;0.75;0.30;;;;;;;8.71;100.00;98461.91;15264784;19;20015;-51
2023/02/18 19:15:27;;;;;;;0.38;0.20;;;;;;;8.71;100.00;98448.47;15263849;19;20006;-49
2023/02/18 19:20:52;;;;;;;0.30;0.30;;;;;;;8.67;100.00;98465.88;15265109;19;20089;-50
2023/02/18 19:26:17;;;;;;;0.30;0.30;;;;;;;8.70;100.00;98465.56;15271515;19;20368;-49
2023/02/18 19:31:44;;;;;;;0.20;0.20;;;;;;;8.78;100.00;98463.00;15263958;19;20809;-50
2023/02/18 19:37:09;;;;;;;0.75;0.30;;;;;;;8.83;100.00;98454.47;15268426;19;20068;-55
2023/02/18 19:42:34;;;;;;;0.60;0.40;;;;;;;8.90;100.00;98443.00;15263281;19;20010;-52
2023/02/18 19:48:04;;;;;;;0.50;0.30;;;;;;;8.93;100.00;98445.38;15263111;19;20366;-54
2023/02/18 19:53:29;;;;;;;0.50;0.50;;;;;;;8.91;100.00;98447.38;15272255;19;20018;-55
2023/02/18 19:58:53;;;;;;;0.40;0.40;;;;;;;8.96;100.00;98456.84;15270119;19;20018;-54
2023/02/18 20:04:20;;;;;;;0.85;0.30;;;;;;;8.96;100.00;98457.66;15270581;19;20047;-54
2023/02/18 20:09:53;;;;;;;0.30;0.30;;;;;;;8.99;100.00;98468.13;15267853;19;20018;-54
2023/02/18 20:15:18;;;;;;;0.30;0.30;;;;;;;9.02;100.00;98485.78;15262684;19;20014;-49
2023/02/18 20:20:45;;;;;;;0.65;0.30;;;;;;;9.04;100.00;98479.28;15267077;19;20025;-50
2023/02/18 20:26:10;;;;;;;0.47;0.30;;;;;;;9.08;100.00;98474.44;15277127;19;20027;-50
2023/02/18 20:31:35;;;;;;;0.40;0.40;;;;;;;8.98;100.00;98474.47;15267818;19;20015;-52
2023/02/18 20:37:02;;;;;;;1.05;0.50;;;;;;;9.00;100.00;98469.81;15271052;19;20014;-51
2023/02/18 20:42:27;;;;;;;0.50;0.50;;;;;;;8.99;100.00;98460.06;15269993;19;20030;-49
2023/02/18 20:47:52;;;;;;;0.60;0.40;;;;;;;8.95;100.00;98455.97;15273388;19;20015;-49
2023/02/18 20:53:19;;;;;;;1.00;0.60;;;;;;;8.91;100.00;98460.81;15303919;19;20051;-55
2023/02/18 20:58:44;;;;;;;0.40;0.40;;;;;;;8.85;100.00;98457.88;15295406;19;20405;-51
2023/02/18 21:04:08;;;;;;;0.40;0.30;;;;;;;8.89;100.00;98459.28;15273975;19;20639;-52
2023/02/18 21:09:42;;;;;;;0.25;0.25;;;;;;;8.84;100.00;98462.41;15273612;19;20341;-53
2023/02/18 21:15:07;;;;;;;0.35;0.30;;;;;;;8.88;100.00;98450.34;15282015;19;20014;-50
2023/02/18 21:20:31;;;;;;;0.57;0.32;;;;;;;8.86;100.00;98448.81;15277817;19;20017;-52
2023/02/18 21:26:04;;;;;;;0.30;0.30;;;;;;;8.88;100.00;98442.28;15272682;19;20030;-51
2023/02/18 21:31:30;;;;;;;1.00;0.50;;;;;;;8.97;100.00;98445.09;15273369;19;20030;-51
2023/02/18 21:36:55;;;;;;;1.85;0.40;;;;;;;8.90;100.00;98444.84;15277200;19;20026;-51
2023/02/18 21:42:22;;;;;;;2.00;0.52;;;;;;;8.92;100.00;98453.59;15275809;19;20045;-53
2023/02/18 21:47:48;;;;;;;1.20;0.70;;;;;;;8.93;100.00;98455.31;15282435;19;20021;-52
2023/02/18 21:53:12;;;;;;;0.57;0.50;;;;;;;8.86;100.00;98441.63;15277954;19;20022;-49
2023/02/18 21:58:42;;;;;;;1.13;0.65;;;;;;;8.86;100.00;98438.06;15275593;19;20326;-51
2023/02/18 22:04:07;;;;;;;0.90;0.60;;;;;;;8.83;100.00;98447.28;15272465;19;20039;-50
2023/02/18 22:09:38;;;;;;;1.67;0.80;;;;;;;8.83;100.00;98436.53;15272952;19;20482;-49
2023/02/18 22:15:08;;;;;;;0.73;0.57;;;;;;;8.81;100.00;98443.91;15278386;19;20021;-53
2023/02/18 22:20:27;;;;;;;1.15;0.70;;;;;;;8.82;100.00;98432.16;15273443;19;20022;-49
2023/02/18 22:25:51;;;;;;;1.40;0.70;;;;;;;8.86;100.00;98427.31;15280910;19;20025;-50
2023/02/18 22:31:18;;;;;;;0.55;0.40;;;;;;;8.84;100.00;98429.31;15266426;19;20018;-49
2023/02/18 22:36:43;;;;;;;0.95;0.68;;;;;;;8.83;100.00;98428.47;15277542;19;20049;-51
2023/02/18 22:42:08;;;;;;;1.40;0.80;;;;;;;8.79;100.00;98419.88;15277622;19;20015;-50
2023/02/18 22:47:35;;;;;;;0.93;0.55;;;;;;;8.81;100.00;98414.34;15275529;19;20022;-49
2023/02/18 22:53:00;;;;;;;0.93;0.65;;;;;;;8.81;100.00;98413.50;15276394;19;20029;-54
2023/02/18 22:58:24;;;;;;;1.92;0.63;;;;;;;8.84;100.00;98411.38;15275230;19;20018;-51
2023/02/18 23:03:52;;;;;;;0.70;0.70;;;;;;;8.77;100.00;98416.50;15267759;19;20494;-49
2023/02/18 23:09:25;;;;;;;1.35;0.80;;;;;;;8.83;100.00;98395.38;15271599;19;20486;-50
2023/02/18 23:14:50;;;;;;;1.20;0.90;;;;;;;8.78;100.00;98402.06;15271332;19;20018;-51
2023/02/18 23:21:15;;;;;;;0.90;0.70;;;;;;;8.70;100.00;98407.31;15273209;19;20029;-49
2023/02/18 23:26:04;;;;;;;0.73;0.50;;;;;;;8.67;100.00;98394.22;15271206;19;20598;-52
2023/02/18 23:31:30;;;;;;;0.80;0.60;;;;;;;8.70;100.00;98382.31;15266660;19;20007;-50
2023/02/18 23:36:59;;;;;;;0.85;0.50;;;;;;;8.77;100.00;98380.72;15268940;19;20018;-50
2023/02/18 23:42:23;;;;;;;1.10;0.60;;;;;;;8.71;100.00;98389.38;15272376;19;20018;-51
2023/02/18 23:47:48;;;;;;;1.50;0.73;;;;;;;8.66;100.00;98389.84;15273368;19;20015;-51
2023/02/18 23:53:15;;;;;;;0.85;0.40;;;;;;;8.64;100.00;98399.88;15266785;19;20056;-51
2023/02/18 23:58:41;;;;;;;0.45;0.45;;;;;;;8.38;100.00;98405.06;15269330;19;20091;-50
